createdAt,value
2023-01-09T04:57:32.554Z,9.82
2023-01-09T05:00:35.294Z,9.82
2023-01-09T05:03:37.395Z,9.25
2023-01-09T05:06:39.844Z,9.16
2023-01-09T05:09:42.869Z,9.15
2023-01-09T05:12:45.279Z,9.08
2023-01-09T05:15:47.390Z,9.12
2023-01-09T05:18:49.831Z,9.26
2023-01-09T05:21:51.978Z,9.31
2023-01-09T05:24:54.389Z,9.34
2023-01-09T05:27:56.598Z,9.32
2023-01-09T05:30:59.142Z,9.36
2023-01-09T05:34:01.300Z,9.36
2023-01-09T05:37:03.659Z,9.42
2023-01-09T05:40:06.565Z,9.38
2023-01-09T05:43:08.978Z,9.40
2023-01-09T05:46:11.128Z,9.42
2023-01-09T05:49:13.539Z,9.46
2023-01-09T05:52:15.650Z,9.47
2023-01-09T05:55:18.380Z,9.53
2023-01-09T05:58:20.500Z,9.56
2023-01-09T06:01:24.449Z,9.53
2023-01-09T06:04:29.858Z,9.75
2023-01-09T06:07:34.707Z,9.85
2023-01-09T06:10:37.152Z,9.74
2023-01-09T06:13:39.435Z,9.61
2023-01-09T06:16:41.950Z,9.61
2023-01-09T06:19:44.727Z,9.50
2023-01-09T06:22:47.234Z,9.65
2023-01-09T06:25:49.337Z,9.57
2023-01-09T06:28:52.302Z,9.54
2023-01-09T06:31:54.672Z,9.91
2023-01-09T06:34:57.373Z,9.75
2023-01-09T06:38:01.420Z,9.68
2023-01-09T06:41:03.910Z,9.71
2023-01-09T06:44:06.067Z,9.78
2023-01-09T06:47:08.474Z,9.77
2023-01-09T06:50:11.400Z,9.91
2023-01-09T06:53:13.826Z,9.91
2023-01-09T06:56:15.902Z,9.94
2023-01-09T06:59:19.358Z,9.96
2023-01-09T07:02:22.405Z,10.06
2023-01-09T07:05:24.955Z,10.05
2023-01-09T07:08:27.113Z,10.04
2023-01-09T07:11:29.615Z,10.06
2023-01-09T07:14:31.823Z,9.93
2023-01-09T07:17:34.325Z,9.92
2023-01-09T07:20:41.405Z,9.94
2023-01-09T07:23:46.650Z,9.86
2023-01-09T07:26:49.460Z,9.85
2023-01-09T07:29:53.467Z,9.78
2023-01-09T07:32:55.671Z,9.72
2023-01-09T07:35:58.167Z,9.73
2023-01-09T07:39:01.597Z,9.84
2023-01-09T07:42:07.450Z,10.04
2023-01-09T07:45:09.987Z,9.94
2023-01-09T07:48:12.396Z,9.98
2023-01-09T07:51:14.650Z,9.99
2023-01-09T07:54:18.051Z,9.92
2023-01-09T07:57:20.384Z,10.00
2023-01-09T08:00:22.761Z,10.17
2023-01-09T08:03:26.746Z,10.16
2023-01-09T08:06:29.249Z,10.16
2023-01-09T08:09:31.680Z,10.04
2023-01-09T08:12:33.950Z,9.95
2023-01-09T08:15:36.480Z,10.18
2023-01-09T08:18:38.661Z,10.23
2023-01-09T08:21:41.075Z,10.34
2023-01-09T08:24:43.243Z,10.10
2023-01-09T08:27:45.945Z,9.79
2023-01-09T08:30:48.089Z,9.62
2023-01-09T08:33:50.963Z,9.46
2023-01-09T08:36:54.089Z,9.61
2023-01-09T08:39:57.449Z,10.08
2023-01-09T08:43:17.888Z,9.96
2023-01-09T08:46:40.302Z,9.76
2023-01-09T08:49:42.439Z,9.55
2023-01-09T08:52:45.018Z,9.30
2023-01-09T08:55:47.190Z,9.32
2023-01-09T08:58:49.586Z,9.28
2023-01-09T09:01:51.801Z,9.23
2023-01-09T09:04:55.971Z,9.67
2023-01-09T09:07:59.144Z,9.65
2023-01-09T09:11:01.599Z,9.50
2023-01-09T09:14:25.552Z,9.28
2023-01-09T09:17:28.885Z,9.16
2023-01-09T09:20:34.132Z,9.07
2023-01-09T09:23:36.810Z,9.10
2023-01-09T09:26:38.949Z,9.12
2023-01-09T09:29:41.365Z,9.00
2023-01-09T09:32:43.555Z,8.96
2023-01-09T09:35:45.956Z,8.99
2023-01-09T09:38:48.071Z,9.24
2023-01-09T09:42:35.216Z,9.04
2023-01-09T09:46:07.703Z,9.01
2023-01-09T09:49:28.154Z,9.04
2023-01-09T09:53:19.842Z,8.85
2023-01-09T09:56:23.812Z,8.84
2023-01-09T09:59:32.386Z,8.81
2023-01-09T10:02:50.498Z,8.77
2023-01-09T10:05:54.259Z,8.76
2023-01-09T10:09:09.302Z,8.66
2023-01-09T10:12:30.349Z,8.77
2023-01-09T10:15:46.574Z,8.83
2023-01-09T10:19:16.165Z,8.73
2023-01-09T10:22:18.190Z,8.73
2023-01-09T10:25:20.641Z,8.93
2023-01-09T10:29:11.331Z,8.82
2023-01-09T10:32:25.654Z,8.80
2023-01-09T10:35:47.023Z,9.07
2023-01-09T10:38:55.440Z,9.18
2023-01-09T10:42:04.066Z,9.00
2023-01-09T10:45:15.778Z,8.87
2023-01-09T10:48:29.172Z,9.25
2023-01-09T10:51:47.131Z,8.99
2023-01-09T10:55:02.532Z,8.86
2023-01-09T10:58:12.423Z,8.74
2023-01-09T11:01:15.086Z,8.97
2023-01-09T11:04:28.879Z,8.89
2023-01-09T11:07:37.156Z,8.81
2023-01-09T11:10:57.259Z,8.73
2023-01-09T11:14:13.667Z,8.80
2023-01-09T11:17:21.654Z,8.92
2023-01-09T11:20:29.596Z,8.90
2023-01-09T11:23:33.273Z,9.07
2023-01-09T11:26:35.408Z,9.01
2023-01-09T11:29:38.428Z,9.10
2023-01-09T11:32:41.129Z,8.94
2023-01-09T11:35:54.237Z,8.84
2023-01-09T11:38:58.980Z,8.79
2023-01-09T11:42:04.904Z,9.00
2023-01-09T11:45:32.433Z,8.79
2023-01-09T11:48:37.878Z,8.88
2023-01-09T11:51:40.994Z,8.87
2023-01-09T11:54:59.091Z,8.88
2023-01-09T11:58:01.270Z,8.86
2023-01-09T12:01:30.263Z,8.95
2023-01-09T12:04:44.999Z,8.90
2023-01-09T12:08:21.548Z,8.79
2023-01-09T12:11:34.896Z,8.78
2023-01-09T12:15:12.287Z,8.82
2023-01-09T12:18:51.553Z,8.83
2023-01-09T12:22:18.160Z,8.84
2023-01-09T12:25:38.677Z,9.12
2023-01-09T12:29:08.891Z,9.06
2023-01-09T12:32:42.915Z,8.99
2023-01-09T12:36:09.765Z,8.94
2023-01-09T12:39:34.751Z,8.99
2023-01-09T12:43:12.521Z,9.01
2023-01-09T12:46:20.679Z,8.96
2023-01-09T12:49:39.271Z,9.14
2023-01-09T12:52:47.015Z,8.97
2023-01-09T12:55:58.957Z,8.95
2023-01-09T12:59:32.860Z,9.09
2023-01-09T13:02:48.245Z,9.30
2023-01-09T13:05:53.291Z,9.28
2023-01-09T13:09:13.195Z,9.43
2023-01-09T13:12:21.487Z,9.18
2023-01-09T13:15:32.574Z,9.11
2023-01-09T13:18:49.785Z,9.08
2023-01-09T13:21:53.458Z,9.01
2023-01-09T13:25:21.893Z,9.06
2023-01-09T13:28:48.035Z,9.12
2023-01-09T13:32:27.771Z,9.15
2023-01-09T13:35:31.037Z,9.10
2023-01-09T13:38:38.377Z,9.25
2023-01-09T13:42:09.422Z,9.29
2023-01-09T13:45:17.812Z,9.25
2023-01-09T13:48:29.399Z,9.24
2023-01-09T13:51:44.075Z,9.20
2023-01-09T13:54:58.247Z,9.29
2023-01-09T13:58:08.117Z,9.30
2023-01-09T14:01:39.829Z,9.21
2023-01-09T14:04:44.573Z,9.21
2023-01-09T14:07:49.482Z,9.24
2023-01-09T14:10:58.704Z,9.24
2023-01-09T14:14:03.578Z,9.17
2023-01-09T14:17:16.703Z,9.11
2023-01-09T14:20:30.611Z,9.14
2023-01-09T14:23:51.606Z,9.20
2023-01-09T14:26:58.072Z,9.16
2023-01-09T14:30:34.601Z,9.18
2023-01-09T14:33:37.071Z,9.21
2023-01-09T14:36:41.036Z,9.23
2023-01-09T14:39:46.354Z,9.18
2023-01-09T14:42:52.737Z,9.30
2023-01-09T14:46:02.422Z,9.37
2023-01-09T14:50:04.042Z,9.53
2023-01-09T14:53:22.559Z,9.49
2023-01-09T14:56:33.374Z,9.36
2023-01-09T14:59:35.519Z,9.49
2023-01-09T15:02:39.548Z,9.47
2023-01-09T15:05:45.115Z,9.46
2023-01-09T15:08:53.908Z,9.46
2023-01-09T15:12:02.028Z,9.36
2023-01-09T15:15:05.260Z,9.35
2023-01-09T15:18:10.582Z,9.36
2023-01-09T15:21:19.649Z,9.47
2023-01-09T15:24:27.055Z,9.47
2023-01-09T15:27:29.945Z,9.45
2023-01-09T15:30:35.880Z,9.48
2023-01-09T15:33:42.822Z,9.46
2023-01-09T15:36:45.073Z,9.46
2023-01-09T15:39:48.114Z,9.46
2023-01-09T15:42:58.423Z,9.51
2023-01-09T15:46:01.537Z,9.47
2023-01-09T15:49:04.004Z,9.45
2023-01-09T15:52:11.775Z,9.37
2023-01-09T15:55:26.195Z,9.32
2023-01-09T15:58:34.693Z,9.27
2023-01-09T16:01:41.579Z,9.63
2023-01-09T16:04:44.001Z,9.64
2023-01-09T16:07:51.271Z,9.62
2023-01-09T16:10:57.325Z,10.19
2023-01-09T16:14:13.991Z,10.29
2023-01-09T16:17:20.159Z,10.13
2023-01-09T16:20:26.718Z,10.20
2023-01-09T16:23:32.042Z,10.26
2023-01-09T16:26:34.838Z,9.95
2023-01-09T16:29:39.125Z,9.80
2023-01-09T16:32:51.258Z,9.92
2023-01-09T16:35:54.081Z,9.86
2023-01-09T16:38:57.474Z,9.69
2023-01-09T16:42:19.047Z,9.64
